createdAt,value
2018-09-20T00:00:35.734Z,16.20
2018-09-20T00:03:03.847Z,16.20
2018-09-20T00:05:32.082Z,16.20
2018-09-20T00:08:00.254Z,16.10
2018-09-20T00:10:28.354Z,16.10
2018-09-20T00:12:56.437Z,16.10
2018-09-20T00:15:24.538Z,16.00
2018-09-20T00:17:52.609Z,16.00
2018-09-20T00:20:20.746Z,16.00
2018-09-20T00:22:48.822Z,16.00
2018-09-20T00:25:16.936Z,16.00
2018-09-20T00:27:45.034Z,16.00
2018-09-20T00:30:13.129Z,15.90
2018-09-20T00:32:41.198Z,15.90
2018-09-20T00:35:09.306Z,16.00
2018-09-20T00:37:37.392Z,15.90
2018-09-20T00:40:05.756Z,16.00
2018-09-20T00:42:33.827Z,16.00
2018-09-20T00:45:01.940Z,16.00
2018-09-20T00:47:30.032Z,15.90
2018-09-20T00:49:58.140Z,16.00
2018-09-20T00:52:26.200Z,16.00
2018-09-20T00:54:54.401Z,15.90
2018-09-20T00:57:22.460Z,15.80
2018-09-20T00:59:50.538Z,15.80
2018-09-20T01:02:18.639Z,15.80
2018-09-20T01:04:46.762Z,15.80
2018-09-20T01:07:14.870Z,15.80
2018-09-20T01:09:42.968Z,15.80
2018-09-20T01:12:11.104Z,15.70
2018-09-20T01:14:39.197Z,15.70
2018-09-20T01:17:07.296Z,15.70
2018-09-20T01:19:35.373Z,15.70
2018-09-20T01:22:03.527Z,15.60
2018-09-20T01:24:31.633Z,15.60
2018-09-20T01:26:59.754Z,15.70
2018-09-20T01:29:27.815Z,15.70
2018-09-20T01:31:55.914Z,15.70
2018-09-20T01:34:24.003Z,15.60
2018-09-20T01:36:52.182Z,15.60
2018-09-20T01:39:20.260Z,15.70
2018-09-20T01:41:48.368Z,15.70
2018-09-20T01:44:16.465Z,15.70
2018-09-20T01:46:44.528Z,15.70
2018-09-20T01:49:12.645Z,15.70
2018-09-20T01:51:40.832Z,15.60
2018-09-20T01:54:08.967Z,15.50
2018-09-20T01:56:37.034Z,15.50
2018-09-20T01:59:05.230Z,15.50
2018-09-20T02:01:33.438Z,15.50
2018-09-20T02:04:01.547Z,15.40
2018-09-20T02:06:29.645Z,15.40
2018-09-20T02:08:57.725Z,15.50
2018-09-20T02:11:25.790Z,15.40
2018-09-20T02:13:54.322Z,15.40
2018-09-20T02:16:22.435Z,15.40
2018-09-20T02:18:50.518Z,15.50
2018-09-20T02:21:18.649Z,15.40
2018-09-20T02:23:46.738Z,15.40
2018-09-20T02:26:14.869Z,15.40
2018-09-20T02:28:42.984Z,15.30
2018-09-20T02:31:11.070Z,15.30
2018-09-20T02:33:39.895Z,15.30
2018-09-20T02:36:08.097Z,15.30
2018-09-20T02:38:36.273Z,15.30
2018-09-20T02:41:04.426Z,15.30
2018-09-20T02:43:32.494Z,15.40
2018-09-20T02:46:00.572Z,15.30
2018-09-20T02:48:28.889Z,15.30
2018-09-20T02:50:56.926Z,15.30
2018-09-20T02:53:25.635Z,15.20
2018-09-20T02:55:53.717Z,15.20
2018-09-20T02:58:21.800Z,15.10
2018-09-20T03:00:49.921Z,15.10
2018-09-20T03:03:17.960Z,15.10
2018-09-20T03:05:46.102Z,15.20
2018-09-20T03:08:14.152Z,15.20
2018-09-20T03:10:42.244Z,15.20
2018-09-20T03:13:10.359Z,15.10
2018-09-20T03:15:38.426Z,15.10
2018-09-20T03:18:06.598Z,15.00
2018-09-20T03:20:35.722Z,15.00
2018-09-20T03:23:03.964Z,15.00
2018-09-20T03:25:32.072Z,15.00
2018-09-20T03:28:00.237Z,15.00
2018-09-20T03:30:28.432Z,15.00
2018-09-20T03:32:56.502Z,15.00
2018-09-20T03:35:24.578Z,14.90
2018-09-20T03:37:52.650Z,14.90
2018-09-20T03:40:20.762Z,14.90
2018-09-20T03:42:48.874Z,14.90
2018-09-20T03:45:16.998Z,14.90
2018-09-20T03:47:45.161Z,14.80
2018-09-20T03:50:13.267Z,14.80
2018-09-20T03:52:41.374Z,14.70
2018-09-20T03:55:09.490Z,14.80
2018-09-20T03:57:37.619Z,14.70
2018-09-20T04:00:05.843Z,14.80
2018-09-20T04:02:33.997Z,14.80
2018-09-20T04:05:02.109Z,14.80
2018-09-20T04:07:30.176Z,14.70
2018-09-20T04:09:58.280Z,14.70
2018-09-20T04:12:26.401Z,14.70
2018-09-20T04:14:54.455Z,14.70
2018-09-20T04:17:22.510Z,14.70
2018-09-20T04:19:50.604Z,14.70
2018-09-20T04:22:18.663Z,14.60
2018-09-20T04:24:46.755Z,14.60
2018-09-20T04:27:14.844Z,14.60
2018-09-20T04:29:42.903Z,14.60
2018-09-20T04:32:10.970Z,14.60
2018-09-20T04:34:39.066Z,14.50
2018-09-20T04:37:07.159Z,14.60
2018-09-20T04:39:35.288Z,14.60
2018-09-20T04:42:03.369Z,14.50
2018-09-20T04:44:31.442Z,14.50
2018-09-20T04:46:59.532Z,14.50
2018-09-20T04:49:27.628Z,14.50
2018-09-20T04:51:55.753Z,14.50
2018-09-20T04:54:23.817Z,14.50
2018-09-20T04:56:51.895Z,14.60
2018-09-20T04:59:20.075Z,14.60
2018-09-20T05:01:48.176Z,14.70
2018-09-20T05:04:16.210Z,14.60
2018-09-20T05:06:44.258Z,14.60
2018-09-20T05:09:13.586Z,14.60
2018-09-20T05:11:42.497Z,14.60
2018-09-20T05:14:10.952Z,14.60
2018-09-20T05:16:39.236Z,14.70
2018-09-20T05:19:07.484Z,14.70
2018-09-20T05:21:35.638Z,14.80
2018-09-20T05:24:03.934Z,14.80
2018-09-20T05:26:32.037Z,14.90
2018-09-20T05:29:00.116Z,15.00
2018-09-20T05:31:28.198Z,15.20
2018-09-20T05:33:56.373Z,15.30
2018-09-20T05:36:24.452Z,15.40
2018-09-20T05:38:52.627Z,15.50
2018-09-20T05:41:20.729Z,15.60
2018-09-20T05:43:48.827Z,15.70
2018-09-20T05:46:17.094Z,15.90
2018-09-20T05:48:45.168Z,16.00
2018-09-20T05:51:13.258Z,16.20
2018-09-20T05:53:41.416Z,16.30
2018-09-20T05:56:09.496Z,16.40
2018-09-20T05:58:37.741Z,16.60
2018-09-20T06:01:05.955Z,16.70
2018-09-20T06:03:34.141Z,16.90
2018-09-20T06:06:02.221Z,17.10
2018-09-20T06:08:30.267Z,17.20
2018-09-20T06:10:58.344Z,17.30
2018-09-20T06:13:26.404Z,17.50
2018-09-20T06:15:54.593Z,17.60
2018-09-20T06:18:22.652Z,17.70
2018-09-20T06:20:50.817Z,17.90
2018-09-20T06:23:18.942Z,18.10
2018-09-20T06:25:47.788Z,18.20
2018-09-20T06:28:15.849Z,18.50
2018-09-20T06:30:43.930Z,18.70
2018-09-20T06:33:12.097Z,18.70
2018-09-20T06:35:40.285Z,19.00
2018-09-20T06:38:08.426Z,19.00
2018-09-20T06:40:36.548Z,19.20
2018-09-20T06:43:04.729Z,19.40
2018-09-20T06:45:32.822Z,19.60
2018-09-20T06:48:00.924Z,19.70
2018-09-20T06:50:29.155Z,19.80
2018-09-20T06:52:57.216Z,20.10
2018-09-20T06:55:25.389Z,20.30
2018-09-20T06:57:53.482Z,20.40
2018-09-20T07:00:21.549Z,20.60
2018-09-20T07:02:49.692Z,21.00
2018-09-20T07:05:17.744Z,21.40
2018-09-20T07:07:45.822Z,21.70
2018-09-20T07:10:13.899Z,21.80
2018-09-20T07:12:41.971Z,22.10
2018-09-20T07:15:10.162Z,22.40
2018-09-20T07:17:38.309Z,23.00
2018-09-20T07:20:06.771Z,23.30
2018-09-20T07:22:34.997Z,23.60
2018-09-20T07:25:03.131Z,23.80
2018-09-20T07:27:31.158Z,24.40
2018-09-20T07:29:59.289Z,24.60
2018-09-20T07:32:27.353Z,24.40
2018-09-20T07:34:56.202Z,24.20
2018-09-20T07:37:24.282Z,24.50
2018-09-20T07:40:23.856Z,24.60
2018-09-20T07:42:51.932Z,24.90
2018-09-20T07:45:20.024Z,25.00
2018-09-20T07:47:48.089Z,25.00
2018-09-20T07:50:16.141Z,25.00
2018-09-20T07:52:44.202Z,25.30
2018-09-20T07:55:12.272Z,25.60
2018-09-20T07:57:40.340Z,25.70
2018-09-20T08:00:08.513Z,25.80
2018-09-20T08:02:36.535Z,25.60
2018-09-20T08:05:04.648Z,25.60
2018-09-20T08:07:32.709Z,26.00
2018-09-20T08:10:00.751Z,26.40
2018-09-20T08:12:28.855Z,26.40
2018-09-20T08:14:56.895Z,26.90
2018-09-20T08:17:24.987Z,27.40
2018-09-20T08:19:53.359Z,27.80
2018-09-20T08:22:21.395Z,28.00
2018-09-20T08:24:49.467Z,27.70
2018-09-20T08:27:18.088Z,28.80
2018-09-20T08:29:46.199Z,28.60
2018-09-20T08:32:14.279Z,28.60
2018-09-20T08:34:42.364Z,28.60
2018-09-20T08:37:10.524Z,28.80
2018-09-20T08:39:38.487Z,29.70
2018-09-20T08:42:07.675Z,30.10
2018-09-20T08:44:35.687Z,30.40
2018-09-20T08:47:03.782Z,30.70
2018-09-20T08:49:31.972Z,31.30
2018-09-20T08:52:00.026Z,31.80
2018-09-20T08:54:28.097Z,32.00
2018-09-20T08:56:56.255Z,32.10
2018-09-20T08:59:24.328Z,32.00
2018-09-20T09:01:52.369Z,32.20
2018-09-20T09:04:20.477Z,32.00
2018-09-20T09:06:48.743Z,31.60
2018-09-20T09:09:16.786Z,31.60
2018-09-20T09:11:44.807Z,32.10
2018-09-20T09:14:12.864Z,32.30
2018-09-20T09:16:40.920Z,33.40
2018-09-20T09:19:08.964Z,33.50
2018-09-20T09:21:37.040Z,33.20
2018-09-20T09:24:05.240Z,31.90
2018-09-20T09:26:33.311Z,32.00
2018-09-20T09:29:01.440Z,31.90
2018-09-20T09:31:29.518Z,32.20
2018-09-20T09:33:58.603Z,31.70
2018-09-20T09:36:26.672Z,32.20
2018-09-20T09:38:54.794Z,32.70
2018-09-20T09:41:22.822Z,33.40
2018-09-20T09:43:50.782Z,32.90
2018-09-20T09:46:19.010Z,33.00
2018-09-20T09:48:47.099Z,32.60
2018-09-20T09:51:15.196Z,33.60
2018-09-20T09:53:43.342Z,33.80
2018-09-20T09:56:11.412Z,34.10
2018-09-20T09:58:39.465Z,34.60
2018-09-20T10:01:07.650Z,34.40
2018-09-20T10:03:35.801Z,34.10
2018-09-20T10:06:03.939Z,34.40
2018-09-20T10:08:32.116Z,34.60
2018-09-20T10:11:00.131Z,34.70
2018-09-20T10:13:28.257Z,34.70
2018-09-20T10:15:56.292Z,36.20
2018-09-20T10:18:24.397Z,35.30
2018-09-20T10:20:52.519Z,35.10
2018-09-20T10:23:20.586Z,34.00
2018-09-20T10:25:48.647Z,33.90
2018-09-20T10:28:16.694Z,33.90
2018-09-20T10:30:44.760Z,34.10
2018-09-20T10:33:12.877Z,34.70
2018-09-20T10:35:41.040Z,34.60
2018-09-20T10:38:09.113Z,34.30
2018-09-20T10:40:37.170Z,34.10
2018-09-20T10:43:05.301Z,34.20
2018-09-20T10:45:33.528Z,33.60
2018-09-20T10:48:01.643Z,33.40
2018-09-20T10:50:29.705Z,34.30
2018-09-20T10:52:57.800Z,35.00
2018-09-20T10:55:25.906Z,34.20
2018-09-20T10:57:53.968Z,34.80
2018-09-20T11:00:22.108Z,34.80
2018-09-20T11:02:50.172Z,34.40
2018-09-20T11:05:18.261Z,34.10
2018-09-20T11:07:46.300Z,34.80
2018-09-20T11:10:14.366Z,34.70
2018-09-20T11:12:42.464Z,35.20
2018-09-20T11:15:10.641Z,34.70
2018-09-20T11:17:38.699Z,35.20
2018-09-20T11:20:06.950Z,35.40
2018-09-20T11:22:35.025Z,35.20
2018-09-20T11:25:03.114Z,35.70
2018-09-20T11:27:31.220Z,36.30
2018-09-20T11:29:59.450Z,37.20
2018-09-20T11:32:27.562Z,37.80
2018-09-20T11:34:55.734Z,37.40
2018-09-20T11:37:23.862Z,37.80
2018-09-20T11:39:51.926Z,36.90
2018-09-20T11:42:20.036Z,37.50
2018-09-20T11:44:48.150Z,38.10
2018-09-20T11:47:16.346Z,37.70
2018-09-20T11:49:44.450Z,37.90
2018-09-20T11:52:12.537Z,37.60
2018-09-20T11:54:40.617Z,36.60
2018-09-20T11:57:08.752Z,37.10
2018-09-20T11:59:36.964Z,36.20
2018-09-20T12:02:05.308Z,37.70
2018-09-20T12:04:33.280Z,37.30
2018-09-20T12:07:01.436Z,36.50
2018-09-20T12:09:30.118Z,37.10
2018-09-20T12:11:59.279Z,37.50
2018-09-20T12:14:27.494Z,36.80
2018-09-20T12:16:55.581Z,37.70
2018-09-20T12:19:23.652Z,38.00
2018-09-20T12:21:51.730Z,39.00
2018-09-20T12:24:19.832Z,38.50
2018-09-20T12:26:48.015Z,38.00
2018-09-20T12:29:16.087Z,38.00
2018-09-20T12:31:44.202Z,38.40
2018-09-20T12:34:12.345Z,38.90
2018-09-20T12:36:40.430Z,39.70
2018-09-20T12:39:11.048Z,38.70
2018-09-20T12:41:39.332Z,39.70
2018-09-20T12:44:07.501Z,39.40
2018-09-20T12:46:35.621Z,38.70
2018-09-20T12:49:03.813Z,39.30
2018-09-20T12:51:32.220Z,40.60
2018-09-20T12:54:00.587Z,39.70
2018-09-20T12:56:28.790Z,39.10
2018-09-20T12:58:56.938Z,38.80
2018-09-20T13:01:25.038Z,38.40
2018-09-20T13:03:53.125Z,38.50
2018-09-20T13:06:21.386Z,38.40
2018-09-20T13:08:49.457Z,37.90
2018-09-20T13:11:18.128Z,37.20
2018-09-20T13:13:46.340Z,36.10
2018-09-20T13:16:14.444Z,35.80
2018-09-20T13:18:42.506Z,36.80
2018-09-20T13:21:11.177Z,37.00
2018-09-20T13:23:39.301Z,37.60
2018-09-20T13:26:07.604Z,37.30
2018-09-20T13:28:35.696Z,36.50
2018-09-20T13:31:03.797Z,36.30
2018-09-20T13:33:31.905Z,36.80
2018-09-20T13:36:00.013Z,37.20
2018-09-20T13:38:28.128Z,37.00
2018-09-20T13:40:56.276Z,36.20
2018-09-20T13:43:24.390Z,36.40
2018-09-20T13:45:52.485Z,36.60
2018-09-20T13:48:20.659Z,36.60
2018-09-20T13:50:48.754Z,37.20
2018-09-20T13:53:16.846Z,37.70
2018-09-20T13:55:44.998Z,38.30
2018-09-20T13:58:13.143Z,38.00
2018-09-20T14:00:41.243Z,37.30
2018-09-20T14:03:09.347Z,35.80
2018-09-20T14:05:37.417Z,36.10
2018-09-20T14:08:05.842Z,35.80
2018-09-20T14:10:33.962Z,35.60
2018-09-20T14:13:02.087Z,35.30
2018-09-20T14:15:30.158Z,35.10
2018-09-20T14:17:58.214Z,35.70
2018-09-20T14:20:26.305Z,36.20
2018-09-20T14:22:54.384Z,35.30
2018-09-20T14:25:22.478Z,35.40
2018-09-20T14:27:50.567Z,35.80
2018-09-20T14:30:18.674Z,34.60
2018-09-20T14:32:46.746Z,33.70
2018-09-20T14:35:14.841Z,33.00
2018-09-20T14:37:42.976Z,32.50
2018-09-20T14:40:11.695Z,32.00
2018-09-20T14:42:39.762Z,31.40
2018-09-20T14:45:07.921Z,30.80
2018-09-20T14:47:35.990Z,30.70
2018-09-20T14:50:04.404Z,30.50
2018-09-20T14:52:32.492Z,30.20
2018-09-20T14:55:00.546Z,30.10
2018-09-20T14:57:28.629Z,30.00
2018-09-20T14:59:56.689Z,29.90
2018-09-20T15:02:24.776Z,29.60
2018-09-20T15:04:52.831Z,29.40
2018-09-20T15:07:20.858Z,29.30
2018-09-20T15:09:48.918Z,29.30
2018-09-20T15:12:17.036Z,29.30
2018-09-20T15:14:45.090Z,28.90
2018-09-20T15:17:13.257Z,28.80
2018-09-20T15:19:41.303Z,28.70
2018-09-20T15:22:09.432Z,28.60
2018-09-20T15:24:37.566Z,28.60
2018-09-20T15:27:05.694Z,28.50
2018-09-20T15:29:33.837Z,28.30
2018-09-20T15:32:02.034Z,28.20
2018-09-20T15:34:30.103Z,28.20
2018-09-20T15:36:58.201Z,28.00
2018-09-20T15:39:26.201Z,27.90
2018-09-20T15:41:54.276Z,27.90
2018-09-20T15:44:22.300Z,27.70
2018-09-20T15:46:50.413Z,27.60
2018-09-20T15:49:18.539Z,27.50
2018-09-20T15:51:46.684Z,27.30
2018-09-20T15:54:14.728Z,27.20
2018-09-20T15:56:42.829Z,27.00
2018-09-20T15:59:10.892Z,26.70
2018-09-20T16:01:38.962Z,26.60
2018-09-20T16:04:07.149Z,26.40
2018-09-20T16:06:35.353Z,26.30
2018-09-20T16:09:05.489Z,26.10
2018-09-20T16:11:33.574Z,25.80
2018-09-20T16:14:01.799Z,25.70
2018-09-20T16:16:29.900Z,25.60
2018-09-20T16:18:58.057Z,25.50
2018-09-20T16:21:26.152Z,25.30
2018-09-20T16:23:54.282Z,25.20
2018-09-20T16:26:22.431Z,25.00
2018-09-20T16:29:14.253Z,24.80
2018-09-20T16:31:53.285Z,24.70
2018-09-20T16:34:42.290Z,24.60
2018-09-20T16:37:39.389Z,24.40
2018-09-20T16:40:11.769Z,24.20
2018-09-20T16:42:43.399Z,24.10
2018-09-20T16:45:11.569Z,23.90
2018-09-20T16:47:39.862Z,23.80
2018-09-20T16:50:08.023Z,23.70
2018-09-20T16:52:36.095Z,23.60
2018-09-20T16:55:04.266Z,23.40
2018-09-20T16:57:32.357Z,23.30
2018-09-20T17:00:00.425Z,23.20
2018-09-20T17:02:28.477Z,23.10
2018-09-20T17:04:56.500Z,22.90
2018-09-20T17:07:24.633Z,22.80
2018-09-20T17:09:52.736Z,22.70
2018-09-20T17:12:20.868Z,22.60
2018-09-20T17:14:49.057Z,22.50
2018-09-20T17:17:16.982Z,22.40
2018-09-20T17:19:45.584Z,22.30
2018-09-20T17:22:13.797Z,22.20
2018-09-20T17:24:47.626Z,22.20
2018-09-20T17:27:16.273Z,22.10
2018-09-20T17:29:44.422Z,22.00
2018-09-20T17:32:12.601Z,21.90
2018-09-20T17:34:40.995Z,21.80
2018-09-20T17:37:09.920Z,21.70
2018-09-20T17:39:39.044Z,21.60
2018-09-20T17:42:08.513Z,21.50
2018-09-20T17:44:36.576Z,21.40
2018-09-20T17:47:04.688Z,21.30
2018-09-20T17:49:32.784Z,21.20
2018-09-20T17:52:01.305Z,21.10
2018-09-20T17:54:29.841Z,21.00
2018-09-20T17:56:59.651Z,21.00
2018-09-20T17:59:27.672Z,20.90
2018-09-20T18:01:55.710Z,20.80
2018-09-20T18:04:24.743Z,20.70
2018-09-20T18:06:52.853Z,20.60
2018-09-20T18:09:21.010Z,20.60
2018-09-20T18:11:49.122Z,20.60
2018-09-20T18:14:17.272Z,20.50
2018-09-20T18:16:45.332Z,20.50
2018-09-20T18:19:14.400Z,20.40
2018-09-20T18:21:42.461Z,20.40
2018-09-20T18:24:10.586Z,20.30
2018-09-20T18:26:38.687Z,20.30
2018-09-20T18:29:06.797Z,20.20
2018-09-20T18:31:35.861Z,20.20
2018-09-20T18:34:04.004Z,20.10
2018-09-20T18:36:32.178Z,20.10
2018-09-20T18:39:01.513Z,20.00
2018-09-20T18:41:29.868Z,20.00
2018-09-20T18:43:58.087Z,19.90
2018-09-20T18:46:26.183Z,19.90
2018-09-20T18:48:54.281Z,19.80
2018-09-20T18:51:23.000Z,19.70
2018-09-20T18:53:51.124Z,19.70
2018-09-20T18:56:19.238Z,19.70
2018-09-20T18:58:47.368Z,19.60
2018-09-20T19:01:15.596Z,19.60
2018-09-20T19:03:43.611Z,19.50
2018-09-20T19:06:11.674Z,19.50
2018-09-20T19:08:39.730Z,19.50
2018-09-20T19:11:07.793Z,19.40
2018-09-20T19:13:35.908Z,19.30
2018-09-20T19:16:04.421Z,19.30
2018-09-20T19:18:32.514Z,19.30
2018-09-20T19:21:00.732Z,19.30
2018-09-20T19:23:28.898Z,19.20
2018-09-20T19:25:56.992Z,19.20
2018-09-20T19:28:25.077Z,19.10
2018-09-20T19:30:53.239Z,19.10
2018-09-20T19:33:21.302Z,19.00
2018-09-20T19:35:49.475Z,19.00
2018-09-20T19:38:17.557Z,18.90
2018-09-20T19:40:45.616Z,18.90
2018-09-20T19:43:13.751Z,18.90
2018-09-20T19:45:41.821Z,18.80
2018-09-20T19:48:09.894Z,18.80
2018-09-20T19:50:38.951Z,18.70
2018-09-20T19:53:07.856Z,18.60
2018-09-20T19:55:36.029Z,18.60
2018-09-20T19:58:04.114Z,18.60
2018-09-20T20:00:32.367Z,18.50
2018-09-20T20:03:00.436Z,18.50
2018-09-20T20:05:28.616Z,18.40
2018-09-20T20:07:56.868Z,18.40
2018-09-20T20:10:24.956Z,18.30
2018-09-20T20:12:53.067Z,18.20
2018-09-20T20:15:21.146Z,18.20
2018-09-20T20:17:49.196Z,18.20
2018-09-20T20:20:17.288Z,18.20
2018-09-20T20:22:45.361Z,18.10
2018-09-20T20:25:13.425Z,18.10
2018-09-20T20:27:41.581Z,18.00
2018-09-20T20:30:09.679Z,18.00
2018-09-20T20:32:37.819Z,18.00
2018-09-20T20:35:05.892Z,17.90
2018-09-20T20:37:33.995Z,17.90
2018-09-20T20:40:02.151Z,17.80
2018-09-20T20:42:30.349Z,17.80
2018-09-20T20:44:58.467Z,17.80
2018-09-20T20:47:26.655Z,17.80
2018-09-20T20:49:54.795Z,17.80
2018-09-20T20:52:22.990Z,17.70
2018-09-20T20:54:51.073Z,17.70
2018-09-20T20:57:19.174Z,17.70
2018-09-20T20:59:47.377Z,17.70
2018-09-20T21:02:15.465Z,17.60
2018-09-20T21:04:43.755Z,17.60
2018-09-20T21:07:11.791Z,17.60
2018-09-20T21:09:39.912Z,17.50
2018-09-20T21:12:07.979Z,17.50
2018-09-20T21:14:36.076Z,17.50
2018-09-20T21:17:04.216Z,17.40
2018-09-20T21:19:32.436Z,17.40
2018-09-20T21:22:00.557Z,17.40
2018-09-20T21:24:28.676Z,17.40
2018-09-20T21:26:56.780Z,17.30
2018-09-20T21:29:24.865Z,17.30
2018-09-20T21:31:53.055Z,17.30
2018-09-20T21:34:21.114Z,17.20
2018-09-20T21:36:49.414Z,17.20
2018-09-20T21:39:17.680Z,17.20
2018-09-20T21:41:45.861Z,17.10
2018-09-20T21:44:13.997Z,17.10
2018-09-20T21:46:42.094Z,17.10
2018-09-20T21:49:10.382Z,17.10
2018-09-20T21:51:38.523Z,17.10
2018-09-20T21:54:06.675Z,17.00
2018-09-20T21:56:34.961Z,17.00
2018-09-20T21:59:03.032Z,16.90
2018-09-20T22:01:36.742Z,16.90
2018-09-20T22:04:05.072Z,16.90
2018-09-20T22:06:34.358Z,16.80
2018-09-20T22:09:03.316Z,16.80
2018-09-20T22:11:31.380Z,16.80
2018-09-20T22:13:59.548Z,16.80
2018-09-20T22:16:27.582Z,16.80
2018-09-20T22:18:55.686Z,16.80
2018-09-20T22:21:23.768Z,16.70
2018-09-20T22:23:51.841Z,16.70
2018-09-20T22:26:20.018Z,16.70
2018-09-20T22:28:48.159Z,16.70
2018-09-20T22:31:16.271Z,16.70
2018-09-20T22:33:44.347Z,16.60
2018-09-20T22:36:12.435Z,16.60
2018-09-20T22:38:40.518Z,16.60
2018-09-20T22:41:08.577Z,16.60
2018-09-20T22:43:36.768Z,16.60
2018-09-20T22:46:04.960Z,16.60
2018-09-20T22:48:33.000Z,16.50
2018-09-20T22:51:01.139Z,16.50
2018-09-20T22:53:29.250Z,16.50
2018-09-20T22:55:57.335Z,16.50
2018-09-20T22:58:25.384Z,16.40
2018-09-20T23:00:53.497Z,16.40
2018-09-20T23:03:21.641Z,16.40
2018-09-20T23:05:49.737Z,16.40
2018-09-20T23:08:17.793Z,16.40
2018-09-20T23:10:45.844Z,16.40
2018-09-20T23:13:13.904Z,16.30
2018-09-20T23:15:41.948Z,16.30
2018-09-20T23:18:09.995Z,16.30
2018-09-20T23:20:38.176Z,16.30
2018-09-20T23:23:06.244Z,16.20
2018-09-20T23:25:34.316Z,16.20
2018-09-20T23:28:02.375Z,16.20
2018-09-20T23:30:30.427Z,16.20
2018-09-20T23:32:58.488Z,16.20
2018-09-20T23:35:26.544Z,16.20
2018-09-20T23:37:54.601Z,16.10
2018-09-20T23:40:22.723Z,16.10
2018-09-20T23:42:50.808Z,16.00
2018-09-20T23:45:18.977Z,16.00
2018-09-20T23:47:47.061Z,16.00
2018-09-20T23:50:15.121Z,16.10
2018-09-20T23:52:43.484Z,16.10
2018-09-20T23:55:11.591Z,16.00
2018-09-20T23:57:39.661Z,16.00
